ラロトンガ の空港の天気 - METARとTAF

ラロトンガ国際空港 ( NCRG / RAR ) - クック諸島 アバルア (ラロトンガ島)
飛行場実況気象(Metar)
観測時間10/19 08:00 CKT (10/19 18:00 UTC)
風向・風速南東 6m/s
視程10km以上
天気現象
全天の4割程度の雲 雲底高度 640m
全天の8割程度の雲 雲底高度 3050m
気温22℃
湿度60%
気圧1016hPa
METARNCRG 191800Z 13012KT 9999 SCT021 BKN100 22/14 Q1016
過去の天気等 Google飛行場航空写真 Wunderground天気予報

過去48時間のMETAR

飛行場予報(TAF)
発表時間: 10/19 07:18 CKT (10/19 17:18 UTC)
予報対象時間: 19日8時 CKT ~ 20日8時 CKT
風向・風速東南東 8m/s
視程10km以上
全天の4割程度の雲 雲底高度 550m
全天の8割程度の雲 雲底高度 1370m
19日10時 CKT ~ 19日23時 CKT に一時的に
風向・風速東南東 8m/s 瞬間風速 13m/s
20日2時 CKT ~ 20日8時 CKT に 確率 40% で一時的に
風向・風速東南東 8m/s 瞬間風速 13m/s
TAF NCRG 191718Z 1918/2018 12015KT 9999 SCT018 BKN045
TEMPO 1920/2009 12015G25KT
PROB40 TEMPO 2012/2018 12015G25KT